createdAt,value
2024-03-10T00:00:08.640Z,977.66
2024-03-10T00:00:18.902Z,977.66
2024-03-10T00:00:29.141Z,977.67
2024-03-10T00:00:39.385Z,977.66
2024-03-10T00:00:49.638Z,977.67
2024-03-10T00:00:59.880Z,977.67
2024-03-10T00:01:10.127Z,977.68
2024-03-10T00:01:20.385Z,977.68
2024-03-10T00:01:30.651Z,977.68
2024-03-10T00:01:40.874Z,977.68
2024-03-10T00:01:51.190Z,977.68
2024-03-10T00:02:01.478Z,977.69
2024-03-10T00:02:11.806Z,977.69
2024-03-10T00:02:22.155Z,977.69
2024-03-10T00:02:32.524Z,977.68
2024-03-10T00:02:42.886Z,977.68
2024-03-10T00:02:53.405Z,977.68
2024-03-10T00:03:03.622Z,977.68
2024-03-10T00:03:14.085Z,977.67
2024-03-10T00:03:24.330Z,977.67
2024-03-10T00:03:34.575Z,977.66
2024-03-10T00:03:44.832Z,977.67
2024-03-10T00:03:55.069Z,977.66
2024-03-10T00:04:05.379Z,977.66
2024-03-10T00:04:15.623Z,977.66
2024-03-10T00:04:25.867Z,977.65
2024-03-10T00:04:36.120Z,977.64
2024-03-10T00:04:46.389Z,977.65
2024-03-10T00:04:56.650Z,977.65
2024-03-10T00:05:06.894Z,977.65
2024-03-10T00:05:17.299Z,977.64
2024-03-10T00:05:27.395Z,977.63
2024-03-10T00:05:37.627Z,977.63
2024-03-10T00:05:47.895Z,977.63
2024-03-10T00:05:58.131Z,977.63
2024-03-10T00:06:08.376Z,977.63
2024-03-10T00:06:18.615Z,977.62
2024-03-10T00:06:28.867Z,977.62
2024-03-10T00:06:39.115Z,977.62
2024-03-10T00:06:49.381Z,977.61
2024-03-10T00:06:59.670Z,977.62
2024-03-10T00:07:09.906Z,977.62
2024-03-10T00:07:20.174Z,977.62
2024-03-10T00:07:30.427Z,977.62
2024-03-10T00:07:40.667Z,977.62
2024-03-10T00:07:50.977Z,977.62
2024-03-10T00:08:01.347Z,977.62
2024-03-10T00:08:11.607Z,977.62
2024-03-10T00:08:21.924Z,977.62
2024-03-10T00:08:32.233Z,977.62
2024-03-10T00:08:42.476Z,977.63
2024-03-10T00:08:52.721Z,977.63
2024-03-10T00:09:02.988Z,977.63
2024-03-10T00:09:13.218Z,977.63
2024-03-10T00:09:23.471Z,977.63
2024-03-10T00:09:33.718Z,977.62
2024-03-10T00:09:43.972Z,977.63
2024-03-10T00:09:54.311Z,977.63
2024-03-10T00:10:04.523Z,977.63
2024-03-10T00:10:14.776Z,977.63
2024-03-10T00:10:25.051Z,977.62
2024-03-10T00:10:35.284Z,977.62
2024-03-10T00:10:45.647Z,977.62
2024-03-10T00:10:56.045Z,977.62
2024-03-10T00:11:06.397Z,977.62
2024-03-10T00:11:16.670Z,977.62
2024-03-10T00:11:27.089Z,977.62
2024-03-10T00:11:37.396Z,977.62
2024-03-10T00:11:47.774Z,977.62
2024-03-10T00:11:58.270Z,977.62
2024-03-10T00:12:08.447Z,977.61
2024-03-10T00:12:18.874Z,977.61
2024-03-10T00:12:29.194Z,977.61
2024-03-10T00:12:39.440Z,977.61
2024-03-10T00:12:50.496Z,977.61
2024-03-10T00:12:59.940Z,977.61
2024-03-10T00:13:10.212Z,977.60
2024-03-10T00:13:20.440Z,977.61
2024-03-10T00:13:30.692Z,977.61
2024-03-10T00:13:40.949Z,977.62
2024-03-10T00:13:51.313Z,977.62
2024-03-10T00:14:01.631Z,977.62
2024-03-10T00:14:11.922Z,977.62
2024-03-10T00:14:22.274Z,977.62
2024-03-10T00:14:32.602Z,977.62
2024-03-10T00:14:42.816Z,977.62
2024-03-10T00:14:53.062Z,977.62
2024-03-10T00:15:03.322Z,977.61
2024-03-10T00:15:13.576Z,977.61
2024-03-10T00:15:23.817Z,977.61
2024-03-10T00:15:34.066Z,977.61
2024-03-10T00:15:44.310Z,977.61
2024-03-10T00:15:54.577Z,977.61
2024-03-10T00:16:04.830Z,977.60
2024-03-10T00:16:15.065Z,977.60
2024-03-10T00:16:25.331Z,977.60
2024-03-10T00:16:35.598Z,977.60
2024-03-10T00:16:45.864Z,977.60
2024-03-10T00:16:56.109Z,977.60
2024-03-10T00:17:06.348Z,977.60
2024-03-10T00:17:16.634Z,977.59
2024-03-10T00:17:26.928Z,977.58
2024-03-10T00:17:37.238Z,977.58
2024-03-10T00:17:47.501Z,977.58
2024-03-10T00:17:57.777Z,977.57
2024-03-10T00:18:08.081Z,977.56
2024-03-10T00:18:18.370Z,977.56
2024-03-10T00:18:28.662Z,977.55
2024-03-10T00:18:38.917Z,977.55
2024-03-10T00:18:49.301Z,977.55
2024-03-10T00:18:59.546Z,977.55
2024-03-10T00:19:09.789Z,977.53
2024-03-10T00:19:20.037Z,977.54
2024-03-10T00:19:30.289Z,977.54
2024-03-10T00:19:40.535Z,977.53
2024-03-10T00:19:50.820Z,977.53
2024-03-10T00:20:01.247Z,977.53
2024-03-10T00:20:11.620Z,977.52
2024-03-10T00:20:22.268Z,977.53
2024-03-10T00:20:32.368Z,977.53
2024-03-10T00:20:42.588Z,977.53
2024-03-10T00:20:52.857Z,977.53
2024-03-10T00:21:03.104Z,977.53
2024-03-10T00:21:13.379Z,977.53
2024-03-10T00:21:23.632Z,977.53
2024-03-10T00:21:33.878Z,977.52
2024-03-10T00:21:44.121Z,977.53
2024-03-10T00:21:54.370Z,977.52
2024-03-10T00:22:04.641Z,977.52
2024-03-10T00:22:14.923Z,977.53
2024-03-10T00:22:25.162Z,977.53
2024-03-10T00:22:35.410Z,977.53
2024-03-10T00:22:48.097Z,977.52
2024-03-10T00:22:56.129Z,977.52
2024-03-10T00:23:06.424Z,977.51
2024-03-10T00:23:16.716Z,977.51
2024-03-10T00:23:26.956Z,977.50
2024-03-10T00:23:37.246Z,977.49
2024-03-10T00:23:47.495Z,977.49
2024-03-10T00:23:57.747Z,977.49
2024-03-10T00:24:07.990Z,977.48
2024-03-10T00:24:18.241Z,977.48
2024-03-10T00:24:28.485Z,977.47
2024-03-10T00:24:38.747Z,977.46
2024-03-10T00:24:48.981Z,977.44
2024-03-10T00:24:59.243Z,977.43
2024-03-10T00:25:09.475Z,977.42
2024-03-10T00:25:19.739Z,977.41
2024-03-10T00:25:29.990Z,977.40
2024-03-10T00:25:40.240Z,977.38
2024-03-10T00:25:50.529Z,977.38
2024-03-10T00:26:00.814Z,977.37
2024-03-10T00:26:11.101Z,977.37
2024-03-10T00:26:21.350Z,977.37
2024-03-10T00:26:31.642Z,977.35
2024-03-10T00:26:41.888Z,977.34
2024-03-10T00:26:52.145Z,977.33
2024-03-10T00:27:02.398Z,977.33
2024-03-10T00:27:12.631Z,977.34
2024-03-10T00:27:22.882Z,977.34
2024-03-10T00:27:33.125Z,977.33
2024-03-10T00:27:43.381Z,977.32
2024-03-10T00:27:53.629Z,977.32
2024-03-10T00:28:03.879Z,977.33
2024-03-10T00:28:14.124Z,977.32
2024-03-10T00:28:24.391Z,977.32
2024-03-10T00:28:34.637Z,977.32
2024-03-10T00:28:44.890Z,977.29
2024-03-10T00:28:55.165Z,977.29
2024-03-10T00:29:05.449Z,977.30
2024-03-10T00:29:15.727Z,977.31
2024-03-10T00:29:26.074Z,977.29
2024-03-10T00:29:36.355Z,977.29
2024-03-10T00:29:46.592Z,977.30
2024-03-10T00:29:56.842Z,977.27
2024-03-10T00:30:07.128Z,977.29
2024-03-10T00:30:17.345Z,977.29
2024-03-10T00:30:27.608Z,977.31
2024-03-10T00:30:37.867Z,977.31
2024-03-10T00:30:48.120Z,977.30
2024-03-10T00:30:58.366Z,977.31
2024-03-10T00:31:08.610Z,977.31
2024-03-10T00:31:18.864Z,977.32
2024-03-10T00:31:29.135Z,977.30
2024-03-10T00:31:39.378Z,977.30
2024-03-10T00:31:49.627Z,977.28
2024-03-10T00:31:59.860Z,977.29
2024-03-10T00:32:10.153Z,977.29
2024-03-10T00:32:20.461Z,977.28
2024-03-10T00:32:30.689Z,977.27
2024-03-10T00:32:41.018Z,977.24
2024-03-10T00:32:51.282Z,977.23
2024-03-10T00:33:01.564Z,977.23
2024-03-10T00:33:11.858Z,977.23
2024-03-10T00:33:22.242Z,977.21
2024-03-10T00:33:32.545Z,977.22
2024-03-10T00:33:42.784Z,977.21
2024-03-10T00:33:53.036Z,977.17
2024-03-10T00:34:03.289Z,977.17
2024-03-10T00:34:13.526Z,977.18
2024-03-10T00:34:23.800Z,977.18
2024-03-10T00:34:34.032Z,977.18
2024-03-10T00:34:44.330Z,977.17
2024-03-10T00:34:54.571Z,977.17
2024-03-10T00:35:04.839Z,977.17
2024-03-10T00:35:15.182Z,977.17
2024-03-10T00:35:25.474Z,977.18
2024-03-10T00:35:35.857Z,977.18
2024-03-10T00:35:46.104Z,977.16
2024-03-10T00:35:56.359Z,977.16
2024-03-10T00:36:06.617Z,977.17
2024-03-10T00:36:16.831Z,977.17
2024-03-10T00:36:27.080Z,977.18
2024-03-10T00:36:37.328Z,977.18
2024-03-10T00:36:47.597Z,977.17
2024-03-10T00:36:57.841Z,977.17
2024-03-10T00:37:08.102Z,977.18
2024-03-10T00:37:18.358Z,977.17
2024-03-10T00:37:28.630Z,977.16
2024-03-10T00:37:38.856Z,977.16
2024-03-10T00:37:49.119Z,977.17
2024-03-10T00:37:59.373Z,977.16
2024-03-10T00:38:09.765Z,977.16
2024-03-10T00:38:20.193Z,977.14
2024-03-10T00:38:30.522Z,977.15
2024-03-10T00:38:40.775Z,977.14
2024-03-10T00:38:51.034Z,977.14
2024-03-10T00:39:01.279Z,977.13
2024-03-10T00:39:11.532Z,977.12
2024-03-10T00:39:21.798Z,977.14
2024-03-10T00:39:32.069Z,977.12
2024-03-10T00:39:42.312Z,977.13
2024-03-10T00:39:52.574Z,977.12
2024-03-10T00:40:02.814Z,977.12
2024-03-10T00:40:13.104Z,977.12
2024-03-10T00:40:23.339Z,977.11
2024-03-10T00:40:33.592Z,977.14
2024-03-10T00:40:43.920Z,977.13
2024-03-10T00:40:54.212Z,977.15
2024-03-10T00:41:04.488Z,977.16
2024-03-10T00:41:14.749Z,977.16
2024-03-10T00:41:25.069Z,977.16
2024-03-10T00:41:35.353Z,977.16
2024-03-10T00:41:45.598Z,977.15
2024-03-10T00:41:55.850Z,977.16
2024-03-10T00:42:06.099Z,977.16
2024-03-10T00:42:16.351Z,977.16
2024-03-10T00:42:26.592Z,977.18
2024-03-10T00:42:36.903Z,977.20
2024-03-10T00:42:47.134Z,977.19
2024-03-10T00:42:57.389Z,977.19
2024-03-10T00:43:07.650Z,977.20
2024-03-10T00:43:17.881Z,977.20
2024-03-10T00:43:28.129Z,977.21
2024-03-10T00:43:38.376Z,977.22
2024-03-10T00:43:48.649Z,977.22
2024-03-10T00:43:58.925Z,977.21
2024-03-10T00:44:09.223Z,977.22
2024-03-10T00:44:19.567Z,977.23
2024-03-10T00:44:29.827Z,977.23
2024-03-10T00:44:40.078Z,977.23
2024-03-10T00:44:50.322Z,977.22
2024-03-10T00:45:00.581Z,977.22
2024-03-10T00:45:10.844Z,977.22
2024-03-10T00:45:21.106Z,977.21
2024-03-10T00:45:31.360Z,977.22
2024-03-10T00:45:41.604Z,977.23
2024-03-10T00:45:51.844Z,977.23
2024-03-10T00:46:02.082Z,977.23
2024-03-10T00:46:12.360Z,977.22
2024-03-10T00:46:22.607Z,977.24
2024-03-10T00:46:32.844Z,977.24
2024-03-10T00:46:43.120Z,977.24
2024-03-10T00:46:53.357Z,977.24
2024-03-10T00:47:03.677Z,977.25
2024-03-10T00:47:13.956Z,977.25
2024-03-10T00:47:24.208Z,977.26
2024-03-10T00:47:34.911Z,977.26
2024-03-10T00:47:44.890Z,977.25
2024-03-10T00:47:55.157Z,977.25
2024-03-10T00:48:05.405Z,977.23
2024-03-10T00:48:15.627Z,977.21
2024-03-10T00:48:26.072Z,977.22
2024-03-10T00:48:36.591Z,977.23
2024-03-10T00:48:46.803Z,977.22
2024-03-10T00:48:57.275Z,977.24
2024-03-10T00:49:07.519Z,977.23
2024-03-10T00:49:17.746Z,977.23
2024-03-10T00:49:28.215Z,977.23
2024-03-10T00:49:38.459Z,977.24
2024-03-10T00:49:48.959Z,977.24
2024-03-10T00:49:59.224Z,977.25
2024-03-10T00:50:09.494Z,977.26
2024-03-10T00:50:19.733Z,977.25
2024-03-10T00:50:29.995Z,977.25
2024-03-10T00:50:40.230Z,977.26
2024-03-10T00:50:50.702Z,977.26
2024-03-10T00:51:01.255Z,977.25
2024-03-10T00:51:11.464Z,977.25
2024-03-10T00:51:21.937Z,977.27
2024-03-10T00:51:32.397Z,977.27
2024-03-10T00:51:42.845Z,977.27
2024-03-10T00:51:53.340Z,977.28
2024-03-10T00:52:03.565Z,977.28
2024-03-10T00:52:14.020Z,977.29
2024-03-10T00:52:24.503Z,977.29
2024-03-10T00:52:34.753Z,977.28
2024-03-10T00:52:45.210Z,977.29
2024-03-10T00:52:55.514Z,977.28
2024-03-10T00:53:05.719Z,977.28
2024-03-10T00:53:16.290Z,977.27
2024-03-10T00:53:26.574Z,977.27
2024-03-10T00:53:36.797Z,977.28
2024-03-10T00:53:47.026Z,977.29
2024-03-10T00:53:57.480Z,977.28
2024-03-10T00:54:07.958Z,977.29
2024-03-10T00:54:18.399Z,977.28
2024-03-10T00:54:28.872Z,977.28
2024-03-10T00:54:39.328Z,977.29
2024-03-10T00:54:49.589Z,977.28
2024-03-10T00:55:00.028Z,977.28
2024-03-10T00:55:10.499Z,977.28
2024-03-10T00:55:20.958Z,977.27
2024-03-10T00:55:31.413Z,977.27
2024-03-10T00:55:41.877Z,977.25
2024-03-10T00:55:52.375Z,977.25
2024-03-10T00:56:02.579Z,977.26
2024-03-10T00:56:13.080Z,977.25
2024-03-10T00:56:23.366Z,977.25
2024-03-10T00:56:33.592Z,977.25
2024-03-10T00:56:44.044Z,977.26
2024-03-10T00:56:54.504Z,977.26
2024-03-10T00:57:04.745Z,977.27
2024-03-10T00:57:15.185Z,977.28
2024-03-10T00:57:25.650Z,977.28
2024-03-10T00:57:36.108Z,977.28
2024-03-10T00:57:46.576Z,977.29
2024-03-10T00:57:57.035Z,977.29
2024-03-10T00:58:07.264Z,977.29
2024-03-10T00:58:17.736Z,977.29
2024-03-10T00:58:27.967Z,977.30
2024-03-10T00:58:38.201Z,977.30
2024-03-10T00:58:48.678Z,977.30
2024-03-10T00:58:59.125Z,977.30
2024-03-10T00:59:09.409Z,977.29
2024-03-10T00:59:19.623Z,977.29
2024-03-10T00:59:30.137Z,977.29
2024-03-10T00:59:40.328Z,977.28
2024-03-10T00:59:50.788Z,977.28
2024-03-10T01:00:01.347Z,977.28
2024-03-10T01:00:12.017Z,977.27
2024-03-10T01:00:22.039Z,977.26
2024-03-10T01:00:32.491Z,977.25
2024-03-10T01:00:42.960Z,977.23
2024-03-10T01:00:53.204Z,977.23
2024-03-10T01:01:03.456Z,977.23
2024-03-10T01:01:13.906Z,977.23
2024-03-10T01:01:24.395Z,977.22
2024-03-10T01:01:34.705Z,977.22
2024-03-10T01:01:45.006Z,977.22
2024-03-10T01:01:55.225Z,977.21
2024-03-10T01:02:05.568Z,977.22
2024-03-10T01:02:16.070Z,977.22
2024-03-10T01:02:26.326Z,977.22
2024-03-10T01:02:36.612Z,977.22
2024-03-10T01:02:46.869Z,977.23
2024-03-10T01:02:57.294Z,977.22
2024-03-10T01:03:07.542Z,977.23
2024-03-10T01:03:17.977Z,977.23
2024-03-10T01:03:28.448Z,977.23
2024-03-10T01:03:38.906Z,977.23
2024-03-10T01:03:49.367Z,977.22
2024-03-10T01:03:59.825Z,977.22
2024-03-10T01:04:10.313Z,977.22
2024-03-10T01:04:20.743Z,977.22
2024-03-10T01:04:31.250Z,977.22
2024-03-10T01:04:41.549Z,977.22
2024-03-10T01:04:52.021Z,977.22
2024-03-10T01:05:02.493Z,977.22
2024-03-10T01:05:12.731Z,977.22
2024-03-10T01:05:23.014Z,977.22
2024-03-10T01:05:33.312Z,977.21
2024-03-10T01:05:43.759Z,977.21
2024-03-10T01:05:54.233Z,977.20
2024-03-10T01:06:04.691Z,977.20
2024-03-10T01:06:15.097Z,977.21
2024-03-10T01:06:25.576Z,977.21
2024-03-10T01:06:36.014Z,977.21
2024-03-10T01:06:48.823Z,977.20
2024-03-10T01:06:56.948Z,977.21
2024-03-10T01:07:07.248Z,977.21
2024-03-10T01:07:17.737Z,977.20
2024-03-10T01:07:27.959Z,977.21
2024-03-10T01:07:38.210Z,977.21
2024-03-10T01:07:48.451Z,977.21
2024-03-10T01:07:58.949Z,977.20
2024-03-10T01:08:09.170Z,977.20
2024-03-10T01:08:19.644Z,977.21
2024-03-10T01:08:29.886Z,977.21
2024-03-10T01:08:40.129Z,977.21
2024-03-10T01:08:50.589Z,977.21
2024-03-10T01:09:00.853Z,977.22
2024-03-10T01:09:11.328Z,977.22
2024-03-10T01:09:21.779Z,977.23
2024-03-10T01:09:32.244Z,977.23
2024-03-10T01:09:42.692Z,977.23
2024-03-10T01:09:53.156Z,977.24
2024-03-10T01:10:03.616Z,977.24
2024-03-10T01:10:14.074Z,977.25
2024-03-10T01:10:24.535Z,977.25
2024-03-10T01:10:34.993Z,977.25
2024-03-10T01:10:45.476Z,977.25
2024-03-10T01:10:56.000Z,977.25
2024-03-10T01:11:06.271Z,977.24
2024-03-10T01:11:16.516Z,977.24
2024-03-10T01:11:26.807Z,977.24
2024-03-10T01:11:37.161Z,977.23
2024-03-10T01:11:47.449Z,977.24
2024-03-10T01:11:57.877Z,977.25
2024-03-10T01:12:08.155Z,977.25
2024-03-10T01:12:18.645Z,977.24
2024-03-10T01:12:28.848Z,977.23
2024-03-10T01:12:39.312Z,977.23
2024-03-10T01:12:49.554Z,977.22
2024-03-10T01:13:00.003Z,977.23
2024-03-10T01:13:10.467Z,977.22
2024-03-10T01:13:20.684Z,977.21
2024-03-10T01:13:31.279Z,977.22
2024-03-10T01:13:41.462Z,977.20
2024-03-10T01:13:52.054Z,977.20
2024-03-10T01:14:02.314Z,977.20
2024-03-10T01:14:12.763Z,977.21
2024-03-10T01:14:23.071Z,977.21
2024-03-10T01:14:33.293Z,977.22
2024-03-10T01:14:43.508Z,977.20
2024-03-10T01:14:53.963Z,977.21
2024-03-10T01:15:04.541Z,977.21
2024-03-10T01:15:14.761Z,977.22
2024-03-10T01:15:25.275Z,977.22
2024-03-10T01:15:35.489Z,977.22
2024-03-10T01:15:45.929Z,977.23
2024-03-10T01:15:56.387Z,977.22
2024-03-10T01:16:06.846Z,977.22
2024-03-10T01:16:17.305Z,977.23
2024-03-10T01:16:27.764Z,977.22
2024-03-10T01:16:38.134Z,977.23
2024-03-10T01:16:48.476Z,977.22
2024-03-10T01:16:58.740Z,977.22
2024-03-10T01:17:08.964Z,977.23
2024-03-10T01:17:19.426Z,977.23
2024-03-10T01:17:30.220Z,977.23
2024-03-10T01:17:40.360Z,977.23
2024-03-10T01:17:50.667Z,977.24
2024-03-10T01:18:01.147Z,977.23
2024-03-10T01:18:11.477Z,977.24
2024-03-10T01:18:21.782Z,977.23
2024-03-10T01:18:32.027Z,977.22
2024-03-10T01:18:42.497Z,977.24
2024-03-10T01:18:52.944Z,977.24
2024-03-10T01:19:03.407Z,977.25
2024-03-10T01:19:13.867Z,977.26
2024-03-10T01:19:24.373Z,977.26
2024-03-10T01:19:34.579Z,977.26
2024-03-10T01:19:45.110Z,977.27
2024-03-10T01:19:55.325Z,977.26
2024-03-10T01:20:05.852Z,977.27
2024-03-10T01:20:16.100Z,977.28
2024-03-10T01:20:26.397Z,977.27
2024-03-10T01:20:36.708Z,977.27
2024-03-10T01:20:46.913Z,977.26
2024-03-10T01:20:57.149Z,977.27
2024-03-10T01:21:07.606Z,977.27
2024-03-10T01:21:18.069Z,977.27
2024-03-10T01:21:28.294Z,977.27
2024-03-10T01:21:38.777Z,977.26
2024-03-10T01:21:49.004Z,977.26
2024-03-10T01:21:59.485Z,977.26
2024-03-10T01:22:09.926Z,977.24
2024-03-10T01:22:20.390Z,977.26
2024-03-10T01:22:30.852Z,977.26
2024-03-10T01:22:41.314Z,977.26
2024-03-10T01:22:51.780Z,977.26
2024-03-10T01:23:02.288Z,977.24
2024-03-10T01:23:12.541Z,977.24
2024-03-10T01:23:22.820Z,977.24
2024-03-10T01:23:33.066Z,977.23
2024-03-10T01:23:43.516Z,977.23
2024-03-10T01:23:53.979Z,977.22
2024-03-10T01:24:07.567Z,977.22
2024-03-10T01:24:14.906Z,977.22
2024-03-10T01:24:25.367Z,977.22
2024-03-10T01:24:35.804Z,977.22
2024-03-10T01:24:46.265Z,977.22
2024-03-10T01:24:56.733Z,977.22
2024-03-10T01:25:07.178Z,977.21
2024-03-10T01:25:17.649Z,977.20
2024-03-10T01:25:28.118Z,977.19
2024-03-10T01:25:38.334Z,977.18
2024-03-10T01:25:48.852Z,977.18
2024-03-10T01:25:59.078Z,977.18
2024-03-10T01:26:09.300Z,977.17
2024-03-10T01:26:19.850Z,977.17
2024-03-10T01:26:30.188Z,977.16
2024-03-10T01:26:40.415Z,977.15
2024-03-10T01:26:50.858Z,977.14
2024-03-10T01:27:01.355Z,977.14
2024-03-10T01:27:11.797Z,977.15
2024-03-10T01:27:22.241Z,977.15
2024-03-10T01:27:32.842Z,977.15
2024-03-10T01:27:43.064Z,977.16
2024-03-10T01:27:53.290Z,977.17
2024-03-10T01:28:03.741Z,977.17
2024-03-10T01:28:14.204Z,977.17
2024-03-10T01:28:24.444Z,977.17
2024-03-10T01:28:34.680Z,977.16
2024-03-10T01:28:44.929Z,977.16
2024-03-10T01:28:55.360Z,977.16
2024-03-10T01:29:05.880Z,977.16
2024-03-10T01:29:16.094Z,977.16
2024-03-10T01:29:26.600Z,977.15
2024-03-10T01:29:36.848Z,977.15
2024-03-10T01:29:47.318Z,977.15
2024-03-10T01:29:57.770Z,977.14
2024-03-10T01:30:08.240Z,977.15
2024-03-10T01:30:18.679Z,977.16
2024-03-10T01:30:29.146Z,977.14
2024-03-10T01:30:39.614Z,977.14
2024-03-10T01:30:49.837Z,977.15
2024-03-10T01:31:00.358Z,977.15
2024-03-10T01:31:10.550Z,977.14
2024-03-10T01:31:21.005Z,977.15
2024-03-10T01:31:31.467Z,977.14
2024-03-10T01:31:41.925Z,977.14
2024-03-10T01:31:52.446Z,977.15
2024-03-10T01:32:02.666Z,977.13
2024-03-10T01:32:13.151Z,977.11
2024-03-10T01:32:23.659Z,977.11
2024-03-10T01:32:34.142Z,977.11
2024-03-10T01:32:44.362Z,977.12
2024-03-10T01:32:54.626Z,977.11
2024-03-10T01:33:05.099Z,977.10
2024-03-10T01:33:15.372Z,977.09
2024-03-10T01:33:25.621Z,977.09
2024-03-10T01:33:35.924Z,977.08
2024-03-10T01:33:46.178Z,977.09
2024-03-10T01:33:56.628Z,977.08
2024-03-10T01:34:07.106Z,977.07
2024-03-10T01:34:17.549Z,977.08
2024-03-10T01:34:28.014Z,977.06
2024-03-10T01:34:38.468Z,977.08
2024-03-10T01:34:48.990Z,977.07
2024-03-10T01:34:59.302Z,977.05
2024-03-10T01:35:09.564Z,977.05
2024-03-10T01:35:20.126Z,977.06
2024-03-10T01:35:30.373Z,977.06
2024-03-10T01:35:40.620Z,977.04
2024-03-10T01:35:50.836Z,977.04
2024-03-10T01:36:01.301Z,977.03
2024-03-10T01:36:11.757Z,977.04
2024-03-10T01:36:22.265Z,977.03
2024-03-10T01:36:32.545Z,977.04
2024-03-10T01:36:42.783Z,977.04
2024-03-10T01:36:52.999Z,977.05
2024-03-10T01:37:03.494Z,977.06
2024-03-10T01:37:13.697Z,977.05
2024-03-10T01:37:24.152Z,977.05
2024-03-10T01:37:34.608Z,977.06
2024-03-10T01:37:45.123Z,977.05
2024-03-10T01:37:55.392Z,977.04
2024-03-10T01:38:05.624Z,977.05
2024-03-10T01:38:15.860Z,977.05
2024-03-10T01:38:26.156Z,977.03
2024-03-10T01:38:36.408Z,977.03
2024-03-10T01:38:46.874Z,977.02
2024-03-10T01:38:57.325Z,977.01
2024-03-10T01:39:07.783Z,977.01
2024-03-10T01:39:18.253Z,977.01
2024-03-10T01:39:28.743Z,977.00
2024-03-10T01:39:38.986Z,977.00
2024-03-10T01:39:49.406Z,976.99
2024-03-10T01:39:59.876Z,976.98
2024-03-10T01:40:10.109Z,976.98
2024-03-10T01:40:20.579Z,976.97
2024-03-10T01:40:30.819Z,976.96
2024-03-10T01:40:41.267Z,976.95
2024-03-10T01:40:51.771Z,976.95
2024-03-10T01:41:02.006Z,976.94
2024-03-10T01:41:12.279Z,976.95
2024-03-10T01:41:22.550Z,976.94
2024-03-10T01:41:32.790Z,976.93
2024-03-10T01:41:43.019Z,976.93
2024-03-10T01:41:53.478Z,976.93
2024-03-10T01:42:03.956Z,976.92
2024-03-10T01:42:14.398Z,976.91
2024-03-10T01:42:24.863Z,976.91
2024-03-10T01:42:35.345Z,976.92
2024-03-10T01:42:45.788Z,976.91
2024-03-10T01:42:56.229Z,976.90
2024-03-10T01:43:06.695Z,976.92
2024-03-10T01:43:17.177Z,976.89
2024-03-10T01:43:27.620Z,976.90
2024-03-10T01:43:38.076Z,976.88
2024-03-10T01:43:48.798Z,976.87
2024-03-10T01:43:58.906Z,976.88
2024-03-10T01:44:09.188Z,976.87
2024-03-10T01:44:19.419Z,976.86
2024-03-10T01:44:29.932Z,976.86
2024-03-10T01:44:40.184Z,976.84
2024-03-10T01:44:50.420Z,976.84
2024-03-10T01:45:00.873Z,976.83
2024-03-10T01:45:11.109Z,976.83
2024-03-10T01:45:21.364Z,976.82
2024-03-10T01:45:31.575Z,976.83
2024-03-10T01:45:42.035Z,976.82
2024-03-10T01:45:52.497Z,976.84
2024-03-10T01:46:02.961Z,976.83
2024-03-10T01:46:13.421Z,976.83
2024-03-10T01:46:23.872Z,976.82
2024-03-10T01:46:34.337Z,976.81
2024-03-10T01:46:44.834Z,976.82
2024-03-10T01:46:55.080Z,976.81
2024-03-10T01:47:05.377Z,976.82
2024-03-10T01:47:15.770Z,976.82
2024-03-10T01:47:26.183Z,976.81
2024-03-10T01:47:36.548Z,976.81
2024-03-10T01:47:46.803Z,976.82
2024-03-10T01:47:57.338Z,976.81
2024-03-10T01:48:07.602Z,976.81
2024-03-10T01:48:17.848Z,976.81
2024-03-10T01:48:28.054Z,976.82
2024-03-10T01:48:38.520Z,976.80
2024-03-10T01:48:48.973Z,976.81
2024-03-10T01:48:59.440Z,976.80
2024-03-10T01:49:09.860Z,976.80
2024-03-10T01:49:20.133Z,976.81
2024-03-10T01:49:30.327Z,976.80
2024-03-10T01:49:40.798Z,976.81
2024-03-10T01:49:51.033Z,976.82
2024-03-10T01:50:01.554Z,976.80
2024-03-10T01:50:11.825Z,976.81
2024-03-10T01:50:22.148Z,976.80
2024-03-10T01:50:32.468Z,976.81
2024-03-10T01:50:42.745Z,976.81
2024-03-10T01:50:53.194Z,976.79
2024-03-10T01:51:03.655Z,976.79
2024-03-10T01:51:14.136Z,976.79
2024-03-10T01:51:24.392Z,976.81
2024-03-10T01:51:34.848Z,976.78
2024-03-10T01:51:45.088Z,976.79
2024-03-10T01:51:55.535Z,976.79
2024-03-10T01:52:05.995Z,976.79
2024-03-10T01:52:16.474Z,976.79
2024-03-10T01:52:26.746Z,976.80
2024-03-10T01:52:37.229Z,976.79
2024-03-10T01:52:47.534Z,976.79
2024-03-10T01:52:57.754Z,976.79
2024-03-10T01:53:08.218Z,976.78
2024-03-10T01:53:18.678Z,976.79
2024-03-10T01:53:29.170Z,976.79
2024-03-10T01:53:39.478Z,976.79
2024-03-10T01:53:49.895Z,976.78
2024-03-10T01:54:00.186Z,976.78
2024-03-10T01:54:10.609Z,976.79
2024-03-10T01:54:21.068Z,976.78
2024-03-10T01:54:31.310Z,976.78
2024-03-10T01:54:41.636Z,976.77
2024-03-10T01:54:52.104Z,976.76
2024-03-10T01:55:02.563Z,976.75
2024-03-10T01:55:13.014Z,976.76
2024-03-10T01:55:23.481Z,976.76
2024-03-10T01:55:33.934Z,976.75
2024-03-10T01:55:44.400Z,976.75
2024-03-10T01:55:54.654Z,976.75
2024-03-10T01:56:05.168Z,976.73
2024-03-10T01:56:15.636Z,976.72
2024-03-10T01:56:25.765Z,976.73
2024-03-10T01:56:36.057Z,976.72
2024-03-10T01:56:46.264Z,976.71
2024-03-10T01:56:56.760Z,976.70
2024-03-10T01:57:06.956Z,976.70
2024-03-10T01:57:17.413Z,976.69
2024-03-10T01:57:27.869Z,976.68
2024-03-10T01:57:38.115Z,976.67
2024-03-10T01:57:48.571Z,976.67
2024-03-10T01:57:59.032Z,976.66
2024-03-10T01:58:09.483Z,976.66
2024-03-10T01:58:19.948Z,976.67
2024-03-10T01:58:30.405Z,976.66
2024-03-10T01:58:40.868Z,976.66
2024-03-10T01:58:51.417Z,976.66
2024-03-10T01:59:01.764Z,976.67
2024-03-10T01:59:12.088Z,976.67
2024-03-10T01:59:22.394Z,976.67
2024-03-10T01:59:32.789Z,976.66
2024-03-10T01:59:43.040Z,976.65
2024-03-10T01:59:53.496Z,976.65
2024-03-10T02:00:03.958Z,976.64
2024-03-10T02:00:14.412Z,976.65
2024-03-10T02:00:24.870Z,976.65
2024-03-10T02:00:35.330Z,976.66
2024-03-10T02:00:45.832Z,976.65
2024-03-10T02:00:56.105Z,976.65
2024-03-10T02:01:06.326Z,976.64
2024-03-10T02:01:17.144Z,976.65
2024-03-10T02:01:27.223Z,976.64
2024-03-10T02:01:37.430Z,976.64
2024-03-10T02:01:47.901Z,976.65
2024-03-10T02:01:58.408Z,976.65
2024-03-10T02:02:08.668Z,976.65
2024-03-10T02:02:19.019Z,976.64
2024-03-10T02:02:29.441Z,976.64
2024-03-10T02:02:39.739Z,976.64
2024-03-10T02:02:49.978Z,976.65
2024-03-10T02:03:00.442Z,976.63
2024-03-10T02:03:10.880Z,976.63
2024-03-10T02:03:21.361Z,976.63
2024-03-10T02:03:31.822Z,976.64
2024-03-10T02:03:42.048Z,976.62
2024-03-10T02:03:52.300Z,976.62
2024-03-10T02:04:02.524Z,976.62
2024-03-10T02:04:12.983Z,976.63
2024-03-10T02:04:23.442Z,976.62
2024-03-10T02:04:33.907Z,976.61
2024-03-10T02:04:44.396Z,976.62
2024-03-10T02:04:54.642Z,976.59
2024-03-10T02:05:05.079Z,976.61
2024-03-10T02:05:15.608Z,976.61
2024-03-10T02:05:25.928Z,976.62
2024-03-10T02:05:36.290Z,976.62
2024-03-10T02:05:46.535Z,976.60
2024-03-10T02:05:56.999Z,976.61
2024-03-10T02:06:07.457Z,976.62
2024-03-10T02:06:17.682Z,976.61
2024-03-10T02:06:28.140Z,976.61
2024-03-10T02:06:38.603Z,976.61
2024-03-10T02:06:48.823Z,976.60
2024-03-10T02:06:59.284Z,976.61
2024-03-10T02:07:09.753Z,976.60
2024-03-10T02:07:20.240Z,976.60
2024-03-10T02:07:30.667Z,976.61
2024-03-10T02:07:41.127Z,976.60
2024-03-10T02:07:51.624Z,976.59
2024-03-10T02:08:01.891Z,976.57
2024-03-10T02:08:12.133Z,976.58
2024-03-10T02:08:22.393Z,976.58
2024-03-10T02:08:32.630Z,976.57
2024-03-10T02:08:42.918Z,976.55
2024-03-10T02:08:53.132Z,976.56
2024-03-10T02:09:03.599Z,976.56